Time;durP1;ratioP1;P1;durP2;ratioP2;P2;SDS_P1;SDS_P2;PMS_P1;PMS_P2;Temp;Humidity;BMP_temperature;BMP_pressure;BME280_temperature;BME280_humidity;BME280_pressure;Samples;Min_cycle;Max_cycle;Signal;HPM_P1;HPM_P2
2022/05/24 00:00:38;;;;;;;0.20;0.20;;;;;;;17.74;93.80;94532.34;4383330;32;20197;-59
2022/05/24 00:03:03;;;;;;;1.90;0.77;;;;;;;17.85;93.40;94525.25;4380015;32;20203;-59
2022/05/24 00:05:31;;;;;;;17.43;0.80;;;;;;;17.91;93.32;94525.72;4353217;32;20196;-59
2022/05/24 00:07:58;;;;;;;1.80;0.40;;;;;;;17.88;93.35;94529.13;4368869;32;20199;-59
2022/05/24 00:10:30;;;;;;;4.97;0.37;;;;;;;18.00;92.99;94536.22;4388469;32;20188;-58
2022/05/24 00:12:55;;;;;;;0.73;0.10;;;;;;;17.85;93.37;94530.63;4377753;32;20240;-59
2022/05/24 00:15:28;;;;;;;0.60;0.60;;;;;;;17.82;94.06;94533.25;4367531;32;20192;-59
2022/05/24 00:17:56;;;;;;;0.30;0.30;;;;;;;17.87;93.61;94530.28;4354270;32;20236;-59
2022/05/24 00:20:25;;;;;;;1.20;0.37;;;;;;;17.92;93.52;94527.28;4385958;32;20188;-60
2022/05/24 00:22:52;;;;;;;5.13;1.07;;;;;;;17.83;93.68;94527.53;4392059;32;20245;-58
2022/05/24 00:25:18;;;;;;;0.43;0.30;;;;;;;17.92;92.98;94527.28;4378036;32;20203;-59
2022/05/24 00:27:44;;;;;;;0.23;0.23;;;;;;;17.74;94.35;94532.34;4359130;32;20173;-59
2022/05/24 00:30:10;;;;;;;0.83;0.43;;;;;;;17.73;94.53;94525.44;4398204;32;20180;-59
2022/05/24 00:32:37;;;;;;;0.20;0.20;;;;;;;17.95;93.34;94525.78;4356043;32;20200;-60
2022/05/24 00:35:06;;;;;;;0.10;0.10;;;;;;;18.01;93.13;94513.63;4389204;32;20347;-59
2022/05/24 00:37:32;;;;;;;0.17;0.17;;;;;;;18.04;92.66;94523.63;4386869;32;20218;-59
2022/05/24 00:39:58;;;;;;;0.93;0.43;;;;;;;17.97;93.34;94518.16;4364002;32;20274;-58
2022/05/24 00:42:28;;;;;;;0.40;0.40;;;;;;;18.00;93.26;94514.75;4376905;32;20299;-58
2022/05/24 00:45:01;;;;;;;0.23;0.23;;;;;;;18.04;93.05;94515.59;4375652;32;20241;-59
2022/05/24 00:47:42;;;;;;;3.70;0.70;;;;;;;17.93;93.72;94518.09;4390917;32;20195;-59
2022/05/24 00:50:21;;;;;;;0.33;0.33;;;;;;;18.03;93.46;94519.41;4381009;32;20192;-59
2022/05/24 00:53:00;;;;;;;0.43;0.43;;;;;;;17.99;93.62;94523.94;4352816;32;20192;-59
2022/05/24 00:55:29;;;;;;;0.17;0.17;;;;;;;17.93;93.75;94528.03;4376052;32;20188;-59
2022/05/24 00:58:24;;;;;;;0.20;0.20;;;;;;;18.02;93.09;94525.91;4381232;32;20263;-58
2022/05/24 01:00:50;;;;;;;0.40;0.40;;;;;;;17.98;93.38;94525.06;4378990;32;20189;-59
2022/05/24 01:03:18;;;;;;;0.53;0.53;;;;;;;17.87;93.54;94525.66;4369131;32;20244;-59
2022/05/24 01:05:44;;;;;;;0.30;0.30;;;;;;;17.76;94.46;94523.94;4344272;32;20291;-58
2022/05/24 01:08:10;;;;;;;0.10;0.10;;;;;;;17.79;94.14;94525.91;4342205;32;20257;-59
2022/05/24 01:10:49;;;;;;;1.10;0.57;;;;;;;17.91;93.42;94519.56;4364254;32;20193;-59
2022/05/24 01:13:20;;;;;;;0.30;0.30;;;;;;;17.91;93.57;94525.72;4352877;32;20196;-60
2022/05/24 01:15:46;;;;;;;0.40;0.40;;;;;;;17.71;94.46;94530.38;4349743;32;20185;-59
2022/05/24 01:18:14;;;;;;;2.87;0.80;;;;;;;17.64;94.88;94529.47;4381040;32;20208;-58
2022/05/24 01:20:51;;;;;;;0.80;0.40;;;;;;;17.76;94.18;94527.41;4376414;32;20235;-58
2022/05/24 01:24:03;;;;;;;0.80;0.80;;;;;;;17.87;94.02;94517.59;4359608;32;20180;-59
2022/05/24 01:26:53;;;;;;;0.40;0.40;;;;;;;17.79;94.34;94515.19;4384127;32;20207;-58
2022/05/24 01:29:22;;;;;;;1.60;0.33;;;;;;;17.90;94.06;94512.66;4347695;32;20218;-59
2022/05/24 01:37:36;;;;;;;0.40;0.40;;;;;;;17.68;94.97;94514.22;4361302;32;20214;-58
2022/05/24 01:40:04;;;;;;;0.40;0.40;;;;;;;17.69;94.66;94521.91;4379955;32;20229;-58
2022/05/24 01:42:35;;;;;;;0.40;0.40;;;;;;;17.80;94.45;94517.50;4363521;32;20236;-59
2022/05/24 01:45:07;;;;;;;0.67;0.67;;;;;;;17.46;95.95;94513.81;4375724;32;20204;-58
2022/05/24 01:47:35;;;;;;;0.80;0.50;;;;;;;17.56;95.71;94507.09;4371872;32;20198;-59
2022/05/24 01:50:10;;;;;;;0.30;0.30;;;;;;;17.63;95.31;94506.44;4362401;32;20200;-58
2022/05/24 01:53:01;;;;;;;0.30;0.30;;;;;;;17.57;95.17;94505.97;4369970;32;20193;-58
2022/05/24 01:55:40;;;;;;;0.20;0.20;;;;;;;17.70;95.06;94512.72;4363805;32;20185;-59
2022/05/24 01:58:10;;;;;;;0.27;0.27;;;;;;;17.74;94.67;94505.50;4371729;32;20192;-59
2022/05/24 02:00:39;;;;;;;0.47;0.47;;;;;;;17.83;94.40;94498.00;4367302;32;20287;-59
2022/05/24 02:03:05;;;;;;;0.30;0.30;;;;;;;17.65;95.09;94505.00;4356797;32;20188;-59
2022/05/24 02:05:40;;;;;;;0.27;0.27;;;;;;;17.71;95.20;94505.44;4366509;32;20193;-59
2022/05/24 02:08:12;;;;;;;0.47;0.47;;;;;;;17.71;95.26;94508.13;4328881;32;20191;-58
2022/05/24 02:10:59;;;;;;;0.60;0.60;;;;;;;17.65;95.60;94506.91;4376380;32;20199;-59
2022/05/24 02:13:36;;;;;;;0.30;0.30;;;;;;;17.75;94.95;94501.69;4366137;32;20200;-59
2022/05/24 02:16:13;;;;;;;0.50;0.50;;;;;;;17.72;95.00;94491.69;4368799;32;20177;-59
2022/05/24 02:18:42;;;;;;;0.47;0.47;;;;;;;17.70;95.38;94493.94;4347102;32;20188;-59
2022/05/24 02:21:08;;;;;;;0.30;0.30;;;;;;;17.85;94.17;94486.91;4373414;32;20191;-60
2022/05/24 02:23:43;;;;;;;0.20;0.20;;;;;;;17.91;94.15;94482.00;4373154;32;20291;-59
2022/05/24 02:26:10;;;;;;;0.80;0.80;;;;;;;17.84;94.54;94478.09;4373553;32;20207;-59
2022/05/24 02:28:36;;;;;;;0.27;0.27;;;;;;;17.87;94.43;94471.97;4362640;32;20185;-59
2022/05/24 02:31:11;;;;;;;0.30;0.30;;;;;;;17.82;94.43;94476.91;4377219;32;20298;-60
2022/05/24 02:33:37;;;;;;;0.70;0.70;;;;;;;17.81;94.59;94468.06;4361609;32;20196;-59
2022/05/24 02:36:07;;;;;;;0.30;0.30;;;;;;;17.78;94.70;94468.00;4374187;32;22769;-59
2022/05/24 02:38:34;;;;;;;0.17;0.17;;;;;;;17.75;95.02;94460.69;4383713;32;20185;-59
2022/05/24 02:43:43;;;;;;;0.60;0.60;;;;;;;17.84;94.57;94451.25;4370212;32;20229;-58
2022/05/24 02:46:09;;;;;;;0.43;0.43;;;;;;;17.78;94.98;94454.59;4383942;32;20189;-59
2022/05/24 02:48:36;;;;;;;0.10;0.10;;;;;;;17.65;95.52;94462.06;4379485;32;20191;-60
2022/05/24 02:51:02;;;;;;;0.20;0.20;;;;;;;17.76;95.22;94465.69;4366366;32;20193;-59
2022/05/24 02:53:30;;;;;;;3.03;0.50;;;;;;;17.69;95.00;94457.50;4368458;32;20246;-59
2022/05/24 02:56:06;;;;;;;0.20;0.20;;;;;;;17.72;95.10;94464.06;4388814;32;20210;-60
2022/05/24 02:58:34;;;;;;;0.50;0.40;;;;;;;17.75;95.04;94453.41;4363027;32;20181;-60
2022/05/24 03:00:59;;;;;;;1.70;0.63;;;;;;;17.93;94.47;94459.03;4377806;32;20188;-60
2022/05/24 03:03:24;;;;;;;0.43;0.43;;;;;;;17.91;94.36;94457.84;4353743;32;20245;-60
2022/05/24 03:05:51;;;;;;;0.40;0.40;;;;;;;17.80;94.55;94455.00;4391105;32;20189;-60
2022/05/24 03:11:07;;;;;;;0.70;0.40;;;;;;;17.87;94.27;94453.19;4367903;32;20358;-59
2022/05/24 03:16:18;;;;;;;0.10;0.10;;;;;;;17.90;94.17;94457.06;4350756;32;20199;-59
2022/05/24 03:18:43;;;;;;;0.40;0.40;;;;;;;17.96;93.60;94452.97;4377810;32;20192;-60
2022/05/24 03:21:08;;;;;;;0.10;0.10;;;;;;;17.77;94.50;94461.88;4365406;32;20210;-59
2022/05/24 03:23:34;;;;;;;0.20;0.20;;;;;;;17.80;94.68;94460.37;4384029;32;20283;-58
2022/05/24 03:26:04;;;;;;;0.30;0.30;;;;;;;17.70;95.14;94458.28;4377888;32;20196;-59
2022/05/24 03:28:31;;;;;;;2.80;0.60;;;;;;;17.57;95.38;94457.69;4383026;32;20185;-59
2022/05/24 03:30:57;;;;;;;0.10;0.10;;;;;;;17.61;95.43;94461.22;4356704;32;20184;-58
2022/05/24 03:33:25;;;;;;;0.50;0.50;;;;;;;17.66;95.06;94455.56;4355019;32;20242;-60
2022/05/24 03:35:51;;;;;;;0.53;0.53;;;;;;;17.73;94.52;94453.00;4366922;32;20196;-59
2022/05/24 03:38:16;;;;;;;0.20;0.20;;;;;;;17.73;94.74;94453.00;4383827;32;20185;-60
2022/05/24 03:40:42;;;;;;;0.60;0.60;;;;;;;17.66;94.84;94460.94;4364758;32;20176;-59
2022/05/24 03:43:13;;;;;;;0.20;0.20;;;;;;;17.73;94.12;94450.31;4360826;32;20235;-59
2022/05/24 03:45:42;;;;;;;0.33;0.33;;;;;;;17.69;94.30;94454.84;4380086;32;20193;-59
2022/05/24 03:48:08;;;;;;;2.10;0.73;;;;;;;17.81;93.70;94446.59;4359924;32;20338;-59
2022/05/24 03:50:35;;;;;;;1.00;1.00;;;;;;;17.77;93.75;94450.38;4384373;32;20267;-60
2022/05/24 03:53:01;;;;;;;0.63;0.63;;;;;;;17.70;94.19;94448.34;4376120;32;20188;-60
2022/05/24 03:55:27;;;;;;;0.70;0.70;;;;;;;17.75;94.15;94453.41;4384944;32;20249;-59
2022/05/24 03:58:01;;;;;;;0.40;0.40;;;;;;;17.75;93.98;94456.09;4390069;32;20267;-60
2022/05/24 04:00:38;;;;;;;0.30;0.30;;;;;;;17.88;93.45;94453.97;4371593;32;20189;-59
2022/05/24 04:03:06;;;;;;;1.00;0.60;;;;;;;17.87;92.96;94455.88;4382996;32;21520;-59
2022/05/24 04:05:34;;;;;;;0.67;0.67;;;;;;;17.72;93.87;94454.13;4378444;32;20231;-59
2022/05/24 04:08:04;;;;;;;0.20;0.20;;;;;;;17.70;93.83;94456.38;4366826;32;20234;-59
2022/05/24 04:10:32;;;;;;;0.47;0.47;;;;;;;17.75;93.31;94468.72;4360027;32;20224;-59
2022/05/24 04:12:58;;;;;;;1.63;0.73;;;;;;;17.80;93.30;94460.37;4374241;32;20185;-59
2022/05/24 04:15:25;;;;;;;0.20;0.20;;;;;;;17.64;93.83;94465.88;4377662;32;20245;-59
2022/05/24 04:17:52;;;;;;;0.57;0.57;;;;;;;17.62;93.86;94470.81;4369066;32;20196;-59
2022/05/24 04:20:20;;;;;;;0.47;0.47;;;;;;;17.74;93.33;94465.28;4367230;32;20188;-59
2022/05/24 04:22:45;;;;;;;0.03;0.03;;;;;;;17.85;92.76;94471.59;4369967;32;20196;-60
2022/05/24 04:25:13;;;;;;;0.40;0.40;;;;;;;17.74;93.02;94472.53;4377221;32;20203;-59
2022/05/24 04:27:40;;;;;;;2.17;0.47;;;;;;;17.78;92.92;94468.78;4343745;32;20192;-59
2022/05/24 04:30:08;;;;;;;0.93;0.13;;;;;;;17.75;93.26;94474.09;4379351;32;20767;-59
2022/05/24 04:32:33;;;;;;;0.10;0.10;;;;;;;17.74;92.66;94467.94;4355488;32;20249;-58
2022/05/24 04:34:59;;;;;;;0.70;0.70;;;;;;;17.83;92.53;94470.41;4390907;32;20273;-59
2022/05/24 04:37:24;;;;;;;0.27;0.27;;;;;;;17.85;92.87;94468.13;4389151;32;20227;-60
2022/05/24 04:39:52;;;;;;;1.13;0.90;;;;;;;17.78;93.10;94468.00;4381071;32;20179;-60
2022/05/24 04:42:21;;;;;;;0.80;0.80;;;;;;;17.81;92.60;94469.97;4380829;32;20188;-60
2022/05/24 04:44:57;;;;;;;2.23;0.63;;;;;;;17.79;93.07;94478.38;4376929;32;20240;-59
2022/05/24 04:47:28;;;;;;;2.43;0.87;;;;;;;17.90;92.71;94493.88;4364256;32;20211;-59
2022/05/24 04:49:56;;;;;;;0.40;0.40;;;;;;;17.82;92.74;94490.31;4382476;32;20200;-59
2022/05/24 04:52:27;;;;;;;0.50;0.50;;;;;;;17.72;93.01;94491.69;4311806;32;20208;-60
2022/05/24 04:54:53;;;;;;;2.33;0.83;;;;;;;17.67;93.56;94497.34;4343763;32;20205;-59
2022/05/24 04:57:20;;;;;;;0.57;0.53;;;;;;;17.70;93.54;94490.50;4356614;32;20220;-59
2022/05/24 04:59:46;;;;;;;14.17;0.50;;;;;;;17.74;93.50;94500.16;4370142;32;20215;-62
2022/05/24 05:02:13;;;;;;;0.40;0.40;;;;;;;17.72;93.93;94494.38;4328568;32;20199;-59
2022/05/24 05:04:39;;;;;;;0.47;0.47;;;;;;;17.64;93.97;94487.34;4374749;32;20185;-59
2022/05/24 05:07:06;;;;;;;0.23;0.23;;;;;;;17.73;93.61;94487.88;4391087;32;20283;-59
2022/05/24 05:09:37;;;;;;;0.33;0.33;;;;;;;17.81;93.30;94489.53;4376817;32;20189;-59
2022/05/24 05:12:09;;;;;;;0.10;0.10;;;;;;;17.76;92.50;94491.75;4376560;32;20192;-59
2022/05/24 05:14:37;;;;;;;0.30;0.30;;;;;;;17.90;92.51;94480.44;4337584;32;20308;-59
2022/05/24 05:17:04;;;;;;;0.50;0.50;;;;;;;17.66;93.23;94482.41;4368853;32;20207;-59
2022/05/24 05:19:34;;;;;;;2.40;0.97;;;;;;;17.71;93.26;94476.72;4364283;32;20191;-59
2022/05/24 05:22:02;;;;;;;2.20;0.63;;;;;;;17.77;92.83;94475.28;4391185;32;20181;-59
2022/05/24 05:24:30;;;;;;;0.60;0.60;;;;;;;17.71;92.75;94489.34;4380620;32;20188;-59
2022/05/24 05:26:57;;;;;;;0.40;0.40;;;;;;;17.79;92.50;94491.81;4350822;32;20264;-59
2022/05/24 05:32:15;;;;;;;0.83;0.83;;;;;;;17.87;92.41;94492.72;4373021;32;20218;-59
2022/05/24 05:34:42;;;;;;;1.03;0.87;;;;;;;17.87;92.04;94494.62;4390585;32;20234;-60
2022/05/24 05:37:08;;;;;;;0.50;0.50;;;;;;;17.84;92.61;94490.72;4374657;32;20259;-59
2022/05/24 05:39:36;;;;;;;0.63;0.63;;;;;;;17.78;92.68;94495.63;4373979;32;20189;-60
2022/05/24 05:42:03;;;;;;;1.30;0.73;;;;;;;17.82;92.70;94499.16;4374125;32;20208;-59
2022/05/24 05:44:29;;;;;;;0.33;0.33;;;;;;;17.87;92.78;94498.81;4371785;32;20188;-60
2022/05/24 05:46:55;;;;;;;0.30;0.30;;;;;;;17.97;92.62;94504.72;4375937;32;20180;-59
2022/05/24 05:49:21;;;;;;;0.27;0.27;;;;;;;17.88;93.17;94502.28;4392820;32;20210;-60
2022/05/24 05:51:47;;;;;;;0.20;0.20;;;;;;;17.67;93.56;94508.06;4377222;32;20234;-60
2022/05/24 05:54:13;;;;;;;0.50;0.50;;;;;;;17.54;94.28;94506.69;4387131;32;20192;-60
2022/05/24 05:56:40;;;;;;;0.60;0.60;;;;;;;17.55;94.49;94512.81;4365427;32;20189;-60
2022/05/24 05:59:06;;;;;;;0.70;0.70;;;;;;;17.67;93.59;94500.03;4364723;32;20194;-60
2022/05/24 06:01:33;;;;;;;0.77;0.77;;;;;;;17.72;94.01;94502.41;4370609;32;20259;-59
2022/05/24 06:04:03;;;;;;;0.40;0.40;;;;;;;17.60;94.03;94510.63;4346811;32;20185;-59
2022/05/24 06:06:33;;;;;;;0.40;0.40;;;;;;;17.59;94.22;94511.75;4386471;32;20193;-60
2022/05/24 06:08:58;;;;;;;1.23;0.90;;;;;;;17.75;93.67;94527.75;4360424;32;20196;-60
2022/05/24 06:11:25;;;;;;;0.43;0.43;;;;;;;17.76;93.77;94532.00;4339988;32;20236;-60
2022/05/24 06:13:52;;;;;;;0.30;0.30;;;;;;;17.83;93.86;94519.47;4372874;32;20211;-59
2022/05/24 06:16:20;;;;;;;0.60;0.60;;;;;;;17.77;94.19;94530.84;4376960;32;20185;-59
2022/05/24 06:18:45;;;;;;;0.67;0.67;;;;;;;17.87;93.31;94524.12;4337369;32;20185;-60
2022/05/24 06:21:13;;;;;;;0.40;0.40;;;;;;;17.93;93.61;94526.13;4366538;32;20180;-59
2022/05/24 06:23:40;;;;;;;0.60;0.60;;;;;;;17.77;94.16;94537.00;4366076;32;20205;-59
2022/05/24 06:26:08;;;;;;;0.50;0.50;;;;;;;17.69;94.53;94539.91;4385965;32;20239;-59
2022/05/24 06:28:34;;;;;;;0.67;0.67;;;;;;;17.59;94.77;94548.53;4345730;32;20180;-60
2022/05/24 06:30:59;;;;;;;0.13;0.13;;;;;;;17.64;94.62;94545.56;4382372;32;20211;-60
2022/05/24 06:33:25;;;;;;;0.20;0.20;;;;;;;17.56;93.96;94557.28;4373858;32;20299;-59
2022/05/24 06:35:51;;;;;;;0.43;0.43;;;;;;;17.53;93.51;94561.44;4374698;32;20219;-59
2022/05/24 06:38:16;;;;;;;0.40;0.40;;;;;;;17.48;94.19;94561.72;4381419;32;20192;-60
2022/05/24 06:40:43;;;;;;;0.30;0.30;;;;;;;17.31;94.57;94557.59;4323227;32;20201;-59
2022/05/24 06:43:11;;;;;;;0.63;0.53;;;;;;;17.42;94.57;94557.81;4364657;32;20187;-60
2022/05/24 06:45:37;;;;;;;0.40;0.40;;;;;;;17.36;95.06;94554.62;4400028;32;20200;-60
2022/05/24 06:48:02;;;;;;;0.97;0.87;;;;;;;17.38;95.34;94551.59;4375002;32;20188;-64
2022/05/24 06:50:28;;;;;;;9.50;2.07;;;;;;;17.53;96.33;94558.78;4354211;32;20188;-64
2022/05/24 06:52:55;;;;;;;0.90;0.70;;;;;;;18.28;90.78;94560.84;4361064;32;20267;-64
2022/05/24 06:55:22;;;;;;;2.53;1.10;;;;;;;18.41;89.59;94558.72;4326872;32;20192;-64
2022/05/24 06:57:49;;;;;;;1.10;0.63;;;;;;;18.47;88.61;94563.44;4374259;32;20242;-63
2022/05/24 07:03:06;;;;;;;0.37;0.37;;;;;;;18.49;88.14;94579.97;4362092;32;20203;-63
2022/05/24 07:05:32;;;;;;;0.60;0.60;;;;;;;18.54;87.76;94585.00;4383880;32;20177;-63
2022/05/24 07:08:01;;;;;;;1.40;1.20;;;;;;;18.45;88.42;94583.72;4377764;32;20222;-64
2022/05/24 07:10:28;;;;;;;0.40;0.40;;;;;;;18.46;88.69;94588.72;4385683;32;20192;-64
2022/05/24 07:13:02;;;;;;;0.20;0.20;;;;;;;18.42;88.98;94589.81;4386680;32;20184;-64
2022/05/24 07:15:33;;;;;;;0.60;0.60;;;;;;;18.40;88.55;94594.75;4390699;32;20191;-63
2022/05/24 07:17:59;;;;;;;0.67;0.67;;;;;;;18.48;88.34;94594.53;4348565;32;20216;-64
2022/05/24 07:20:27;;;;;;;1.23;0.73;;;;;;;18.48;88.67;94599.91;4391311;32;20251;-64
2022/05/24 07:23:05;;;;;;;0.50;0.50;;;;;;;18.47;88.11;94595.66;4337083;32;20197;-63
2022/05/24 07:25:31;;;;;;;0.53;0.53;;;;;;;18.40;88.99;94602.81;4352761;32;20193;-63
2022/05/24 07:27:56;;;;;;;1.47;0.77;;;;;;;18.39;88.93;94607.41;4350387;32;20239;-64
2022/05/24 07:30:21;;;;;;;0.20;0.20;;;;;;;18.44;89.22;94606.34;4371779;32;20201;-64
2022/05/24 07:32:47;;;;;;;1.07;0.97;;;;;;;18.19;90.41;94611.31;4368576;32;20275;-63
2022/05/24 07:35:14;;;;;;;1.17;1.07;;;;;;;18.15;89.77;94615.84;4365099;32;20205;-64
2022/05/24 07:37:40;;;;;;;0.20;0.20;;;;;;;17.90;91.14;94623.47;4373725;32;20223;-63
2022/05/24 07:45:48;;;;;;;3.13;1.07;;;;;;;17.63;91.97;94645.94;4384376;32;20274;-64
2022/05/24 07:48:14;;;;;;;0.70;0.70;;;;;;;17.71;92.88;94650.31;4360692;32;20192;-63
2022/05/24 07:50:43;;;;;;;5.20;1.23;;;;;;;17.61;93.19;94643.63;4366301;32;20192;-62
2022/05/24 07:53:10;;;;;;;1.30;0.87;;;;;;;17.73;92.53;94646.16;4372594;32;20275;-63
2022/05/24 07:55:38;;;;;;;0.80;0.80;;;;;;;17.59;91.70;94661.19;4398679;32;20259;-62
2022/05/24 07:58:05;;;;;;;5.33;2.20;;;;;;;17.45;92.11;94664.38;4373606;32;20200;-62
2022/05/24 08:00:31;;;;;;;0.83;0.83;;;;;;;17.43;94.79;94663.94;4340046;32;20254;-61
2022/05/24 08:02:57;;;;;;;4.67;1.40;;;;;;;17.40;93.77;94664.66;4367140;32;20188;-63
2022/05/24 08:05:24;;;;;;;0.53;0.53;;;;;;;17.36;93.28;94677.22;4349207;32;20195;-61
2022/05/24 08:07:50;;;;;;;0.27;0.27;;;;;;;17.03;93.85;94686.47;4371969;32;20193;-61
2022/05/24 08:10:18;;;;;;;0.70;0.70;;;;;;;17.25;93.87;94690.38;4372385;32;20256;-60
2022/05/24 08:12:43;;;;;;;0.67;0.60;;;;;;;17.38;93.54;94680.31;4387574;32;20188;-61
2022/05/24 08:15:11;;;;;;;0.90;0.90;;;;;;;17.53;92.86;94677.56;4368820;32;20231;-61
2022/05/24 08:17:37;;;;;;;0.50;0.50;;;;;;;17.26;92.76;94688.47;4386648;32;20319;-62
2022/05/24 08:20:04;;;;;;;0.50;0.50;;;;;;;17.52;92.63;94694.00;4373724;32;20192;-61
2022/05/24 08:22:30;;;;;;;0.30;0.23;;;;;;;17.63;92.12;94700.38;4385052;32;20181;-62
2022/05/24 08:24:56;;;;;;;0.20;0.20;;;;;;;17.70;91.55;94695.16;4380093;32;20251;-63
2022/05/24 08:27:22;;;;;;;0.30;0.30;;;;;;;17.61;91.99;94705.31;4387831;32;20215;-62
2022/05/24 08:29:48;;;;;;;0.67;0.67;;;;;;;17.52;91.97;94718.16;4367965;32;20235;-62
2022/05/24 08:32:14;;;;;;;0.20;0.20;;;;;;;17.50;92.45;94731.12;4389341;32;20205;-62
2022/05/24 08:34:39;;;;;;;0.33;0.33;;;;;;;17.28;92.95;94729.13;4357712;32;20228;-61
2022/05/24 08:37:06;;;;;;;1.90;0.73;;;;;;;17.20;93.16;94738.16;4368745;32;20263;-62
2022/05/24 08:39:32;;;;;;;0.27;0.27;;;;;;;16.99;94.25;94733.84;4362191;32;20200;-61
2022/05/24 08:42:12;;;;;;;2.60;0.63;;;;;;;17.03;94.22;94740.09;4371108;32;20184;-61
2022/05/24 08:50:21;;;;;;;0.50;0.30;;;;;;;17.08;93.88;94731.75;4362548;32;20199;-62
2022/05/24 08:52:55;;;;;;;0.93;0.93;;;;;;;17.13;94.07;94744.13;4381422;32;20205;-59
2022/05/24 08:55:21;;;;;;;0.27;0.27;;;;;;;17.13;93.84;94742.22;4364508;32;20215;-61
2022/05/24 08:57:54;;;;;;;0.43;0.43;;;;;;;17.23;93.51;94748.19;4345010;32;20196;-60
2022/05/24 09:00:24;;;;;;;1.00;0.80;;;;;;;17.33;93.04;94748.41;4362700;32;20181;-62
2022/05/24 09:02:50;;;;;;;0.50;0.50;;;;;;;16.97;93.89;94743.38;4374654;32;20185;-61
2022/05/24 09:05:28;;;;;;;0.50;0.50;;;;;;;16.84;94.43;94738.09;4357238;32;20211;-61
2022/05/24 09:08:06;;;;;;;0.27;0.27;;;;;;;17.04;93.70;94740.88;4380348;32;20184;-61
2022/05/24 09:10:55;;;;;;;1.13;0.63;;;;;;;17.03;93.98;94734.72;4368415;32;20200;-62
2022/05/24 09:13:51;;;;;;;0.37;0.37;;;;;;;16.99;93.46;94739.22;4370184;32;20196;-61
2022/05/24 09:16:17;;;;;;;0.17;0.17;;;;;;;16.83;93.53;94736.53;4379623;32;20204;-60
2022/05/24 09:19:08;;;;;;;0.77;0.63;;;;;;;17.16;92.56;94733.47;4374547;32;20203;-61
2022/05/24 09:21:37;;;;;;;0.20;0.20;;;;;;;17.61;90.87;94726.00;4377491;32;20200;-61
2022/05/24 09:24:26;;;;;;;0.10;0.10;;;;;;;17.67;89.94;94722.69;4327223;32;20197;-61
2022/05/24 09:27:12;;;;;;;0.70;0.70;;;;;;;17.61;88.99;94721.41;4372658;32;20189;-62
2022/05/24 09:29:59;;;;;;;0.20;0.20;;;;;;;17.67;89.49;94724.59;4383781;32;20254;-60
2022/05/24 09:32:46;;;;;;;0.93;0.27;;;;;;;17.34;90.26;94731.19;4359360;32;20189;-59
2022/05/24 09:35:27;;;;;;;0.10;0.10;;;;;;;16.70;91.73;94732.41;4357513;32;20193;-60
2022/05/24 09:38:08;;;;;;;4.27;0.80;;;;;;;16.58;93.60;94734.37;4365483;32;20199;-59
2022/05/24 09:40:49;;;;;;;0.27;0.27;;;;;;;16.60;94.81;94737.47;4377107;32;20230;-59
2022/05/24 09:43:25;;;;;;;0.30;0.30;;;;;;;16.27;95.35;94746.59;4363067;32;20180;-58
2022/05/24 09:46:01;;;;;;;0.40;0.40;;;;;;;16.34;94.26;94749.47;4345669;32;20199;-59
2022/05/24 09:48:31;;;;;;;0.27;0.27;;;;;;;16.00;94.73;94752.78;4363094;32;20302;-58
2022/05/24 09:51:01;;;;;;;25.57;1.20;;;;;;;16.05;94.97;94769.34;4356119;32;20184;-58
2022/05/24 09:53:30;;;;;;;0.40;0.40;;;;;;;15.90;95.97;94769.28;4357140;32;20185;-59
2022/05/24 09:56:29;;;;;;;0.57;0.57;;;;;;;15.87;97.19;94765.41;4378142;32;20232;-59
2022/05/24 09:58:56;;;;;;;0.47;0.47;;;;;;;16.15;96.77;94763.50;4376012;32;20269;-64
2022/05/24 10:01:43;;;;;;;0.30;0.30;;;;;;;16.15;96.19;94771.53;4374891;32;20218;-62
2022/05/24 10:04:25;;;;;;;0.20;0.20;;;;;;;17.31;92.62;94772.09;4386800;32;20280;-62
2022/05/24 10:07:01;;;;;;;0.60;0.60;;;;;;;17.49;90.79;94772.47;4358570;32;20189;-58
2022/05/24 10:09:54;;;;;;;0.40;0.40;;;;;;;16.65;92.62;94772.81;4372383;32;20210;-59
2022/05/24 10:12:39;;;;;;;0.20;0.20;;;;;;;16.37;94.08;94783.59;4327657;32;20215;-59
2022/05/24 10:16:06;;;;;;;0.17;0.17;;;;;;;16.39;94.87;94781.34;4317412;32;20188;-59
2022/05/24 10:19:24;;;;;;;0.57;0.57;;;;;;;16.48;93.88;94786.53;4378388;32;20185;-59
2022/05/24 10:22:16;;;;;;;0.20;0.20;;;;;;;16.43;94.74;94782.19;4382471;32;20189;-59
2022/05/24 10:24:50;;;;;;;0.20;0.20;;;;;;;16.39;93.89;94776.00;4381396;32;20189;-58
2022/05/24 10:27:49;;;;;;;0.40;0.40;;;;;;;16.26;94.96;94782.50;4371828;32;20188;-61
2022/05/24 10:30:47;;;;;;;0.40;0.40;;;;;;;16.18;94.59;94785.34;4382288;32;20164;-59
2022/05/24 10:40:32;;;;;;;0.20;0.20;;;;;;;16.12;94.99;94808.91;4364005;32;20199;-59
2022/05/24 10:43:27;;;;;;;0.10;0.10;;;;;;;16.31;95.29;94805.59;4378875;32;20210;-59
2022/05/24 10:46:01;;;;;;;0.30;0.30;;;;;;;16.31;95.36;94795.66;4367792;32;20241;-59
2022/05/24 10:48:58;;;;;;;0.40;0.40;;;;;;;16.22;95.09;94792.34;4360930;32;20200;-59
2022/05/24 10:51:30;;;;;;;0.50;0.50;;;;;;;16.31;95.73;94801.00;4374578;32;20188;-59
2022/05/24 10:54:06;;;;;;;5.93;1.17;;;;;;;16.40;96.21;94801.66;4368939;32;20232;-60
2022/05/24 10:56:57;;;;;;;0.30;0.30;;;;;;;16.73;95.95;94796.00;4385927;32;20204;-59
2022/05/24 10:59:40;;;;;;;0.50;0.50;;;;;;;16.88;95.17;94807.84;4367394;32;20241;-60
2022/05/24 11:02:17;;;;;;;0.50;0.50;;;;;;;16.94;94.98;94806.47;4377124;32;20293;-59
2022/05/24 11:05:10;;;;;;;0.87;0.87;;;;;;;16.72;94.75;94801.69;4377030;32;20196;-58
2022/05/24 11:07:37;;;;;;;0.47;0.47;;;;;;;16.73;95.03;94811.28;4383030;32;20254;-58
2022/05/24 11:10:07;;;;;;;0.40;0.40;;;;;;;16.70;95.65;94801.25;4366537;32;20203;-59
2022/05/24 11:12:44;;;;;;;1.73;0.70;;;;;;;16.80;95.07;94811.47;4380993;32;20204;-59
2022/05/24 11:15:33;;;;;;;0.17;0.17;;;;;;;17.01;94.18;94821.94;4377864;32;20282;-59
2022/05/24 11:18:12;;;;;;;0.20;0.20;;;;;;;16.76;93.79;94807.94;4352469;32;20223;-59
2022/05/24 11:20:45;;;;;;;0.80;0.70;;;;;;;16.96;95.40;94816.84;4344059;32;20276;-58
2022/05/24 11:23:31;;;;;;;0.60;0.60;;;;;;;16.88;94.15;94810.53;4358692;32;20181;-60
2022/05/24 11:26:28;;;;;;;0.60;0.60;;;;;;;16.77;95.72;94820.22;4360618;32;20236;-58
2022/05/24 11:28:58;;;;;;;0.30;0.30;;;;;;;17.00;94.94;94817.72;4348822;32;20192;-59
2022/05/24 11:32:09;;;;;;;0.63;0.40;;;;;;;16.97;94.39;94813.03;4361104;32;20267;-58
2022/05/24 11:35:01;;;;;;;0.10;0.10;;;;;;;17.05;94.38;94812.84;4358724;32;20260;-58
2022/05/24 11:37:32;;;;;;;2.77;0.60;;;;;;;17.02;94.19;94828.88;4340345;32;20232;-59
2022/05/24 11:40:37;;;;;;;0.10;0.10;;;;;;;17.03;94.90;94831.22;4337590;32;20230;-59
2022/05/24 11:43:32;;;;;;;0.57;0.57;;;;;;;17.09;94.89;94826.34;4370229;32;20199;-58
2022/05/24 11:46:09;;;;;;;15.73;1.70;;;;;;;17.32;94.04;94826.50;4349366;32;20250;-58
2022/05/24 11:48:51;;;;;;;0.23;0.23;;;;;;;17.06;95.02;94825.13;4368860;32;20192;-58
2022/05/24 11:51:41;;;;;;;0.20;0.20;;;;;;;17.02;95.77;94829.66;4353787;32;20198;-59
2022/05/24 11:54:23;;;;;;;0.50;0.50;;;;;;;16.91;95.16;94822.47;4368329;32;20283;-59
2022/05/24 11:57:08;;;;;;;0.50;0.50;;;;;;;16.94;95.58;94833.25;4352569;32;20188;-60
2022/05/24 11:59:43;;;;;;;0.30;0.30;;;;;;;16.83;94.78;94827.63;4370309;32;20211;-58
2022/05/24 12:02:26;;;;;;;0.20;0.20;;;;;;;17.03;94.56;94831.22;4331819;32;20209;-59
2022/05/24 12:08:27;;;;;;;0.33;0.33;;;;;;;17.04;94.77;94822.00;4350052;32;20303;-59
2022/05/24 12:11:13;;;;;;;0.30;0.30;;;;;;;16.76;95.97;94826.69;4365513;32;20222;-59
2022/05/24 12:14:02;;;;;;;0.60;0.60;;;;;;;16.93;95.88;94826.34;4352030;32;20263;-59
2022/05/24 12:16:40;;;;;;;0.60;0.60;;;;;;;16.87;96.59;94830.41;4354010;32;20200;-60
2022/05/24 12:19:28;;;;;;;0.40;0.40;;;;;;;17.09;95.94;94840.53;4335717;32;20204;-59
2022/05/24 12:22:09;;;;;;;0.43;0.43;;;;;;;16.86;96.31;94836.88;4324260;32;20255;-61
2022/05/24 12:24:45;;;;;;;2.77;1.10;;;;;;;17.00;95.45;94847.97;4346214;32;20198;-59
2022/05/24 12:27:24;;;;;;;0.40;0.40;;;;;;;16.64;97.07;94854.31;4322574;32;20222;-60
2022/05/24 12:30:00;;;;;;;0.23;0.23;;;;;;;16.76;97.45;94864.19;4348084;32;20196;-59
2022/05/24 12:32:31;;;;;;;0.30;0.30;;;;;;;16.69;92.95;94875.50;4357099;32;20253;-59
2022/05/24 12:35:09;;;;;;;0.17;0.17;;;;;;;16.00;91.54;94897.25;4350488;32;20235;-61
2022/05/24 12:37:36;;;;;;;0.10;0.10;;;;;;;15.25;92.35;94886.09;4349224;32;20319;-58
2022/05/24 12:40:25;;;;;;;0.20;0.20;;;;;;;15.15;92.99;94894.56;4360932;32;20188;-58